createdAt,value
2023-06-07T00:01:58.721Z,25.00
2023-06-07T00:04:25.614Z,25.00
2023-06-07T00:06:57.753Z,25.00
2023-06-07T00:09:24.572Z,25.00
2023-06-07T00:11:51.255Z,24.90
2023-06-07T00:14:17.974Z,25.00
2023-06-07T00:16:45.861Z,25.00
2023-06-07T00:19:12.766Z,25.00
2023-06-07T00:21:39.745Z,25.00
2023-06-07T00:24:06.765Z,25.00
2023-06-07T00:26:34.253Z,25.00
2023-06-07T00:29:00.947Z,25.00
2023-06-07T00:31:27.667Z,24.90
2023-06-07T00:33:54.380Z,24.90
2023-06-07T00:36:21.249Z,25.00
2023-06-07T00:38:47.953Z,24.80
2023-06-07T00:41:14.638Z,25.00
2023-06-07T00:43:41.409Z,24.80
2023-06-07T00:46:08.541Z,24.80
2023-06-07T00:48:36.246Z,24.90
2023-06-07T00:51:03.496Z,24.90
2023-06-07T00:53:30.837Z,24.80
2023-06-07T00:55:58.719Z,24.80
2023-06-07T00:58:26.780Z,24.90
2023-06-07T01:00:54.164Z,24.80
2023-06-07T01:03:22.961Z,24.90
2023-06-07T01:05:51.194Z,24.80
2023-06-07T01:08:18.002Z,24.80
2023-06-07T01:10:44.958Z,24.80
2023-06-07T01:13:12.521Z,24.80
2023-06-07T01:15:39.631Z,24.80
2023-06-07T01:18:10.700Z,24.80
2023-06-07T01:20:40.010Z,24.90
2023-06-07T01:23:08.718Z,24.80
2023-06-07T01:25:35.594Z,24.70
2023-06-07T01:28:02.626Z,24.80
2023-06-07T01:30:32.806Z,24.80
2023-06-07T01:33:03.943Z,24.70
2023-06-07T01:35:31.394Z,24.80
2023-06-07T01:37:59.571Z,24.80
2023-06-07T01:40:27.727Z,24.80
2023-06-07T01:42:58.326Z,24.80
2023-06-07T01:45:25.476Z,24.80
2023-06-07T01:47:52.369Z,24.80
2023-06-07T01:50:23.337Z,24.80
2023-06-07T01:52:50.417Z,24.80
2023-06-07T01:55:18.194Z,24.80
2023-06-07T01:58:16.132Z,24.80
2023-06-07T02:00:58.612Z,24.80
2023-06-07T02:03:34.156Z,24.70
2023-06-07T02:06:04.951Z,24.60
2023-06-07T02:09:00.394Z,24.70
2023-06-07T02:11:28.752Z,24.70
2023-06-07T02:13:56.573Z,24.60
2023-06-07T02:16:37.184Z,24.60
2023-06-07T02:19:08.792Z,24.50
2023-06-07T02:21:36.379Z,24.60
2023-06-07T02:24:04.224Z,24.60
2023-06-07T02:26:31.261Z,24.60
2023-06-07T02:28:58.009Z,24.60
2023-06-07T02:31:25.493Z,24.60
2023-06-07T02:33:52.435Z,24.60
2023-06-07T02:36:22.263Z,24.60
2023-06-07T02:38:49.521Z,24.60
2023-06-07T02:41:16.742Z,24.60
2023-06-07T02:43:44.924Z,24.70
2023-06-07T02:46:14.706Z,24.70
2023-06-07T02:48:41.458Z,24.60
2023-06-07T02:51:08.408Z,24.60
2023-06-07T02:53:35.248Z,24.80
2023-06-07T02:56:02.217Z,24.60
2023-06-07T02:58:29.914Z,24.60
2023-06-07T03:00:57.074Z,24.70
2023-06-07T03:03:24.922Z,24.70
2023-06-07T03:05:53.320Z,24.60
2023-06-07T03:08:20.061Z,24.70
2023-06-07T03:10:46.867Z,24.70
2023-06-07T03:13:13.586Z,24.70
2023-06-07T03:15:40.358Z,24.60
2023-06-07T03:18:07.101Z,24.80
2023-06-07T03:20:35.952Z,24.70
2023-06-07T03:23:03.806Z,24.70
2023-06-07T03:25:31.240Z,24.70
2023-06-07T03:27:58.035Z,24.70
2023-06-07T03:30:24.862Z,24.70
2023-06-07T03:32:52.093Z,24.60
2023-06-07T03:35:19.520Z,24.70
2023-06-07T03:37:46.594Z,24.70
2023-06-07T03:40:13.648Z,24.60
2023-06-07T03:42:40.713Z,24.70
2023-06-07T03:45:08.020Z,24.70
2023-06-07T03:47:34.729Z,24.60
2023-06-07T03:50:01.512Z,24.80
2023-06-07T03:52:28.253Z,24.80
2023-06-07T03:54:54.915Z,24.80
2023-06-07T03:57:21.736Z,24.70
2023-06-07T03:59:48.537Z,24.80
2023-06-07T04:02:15.267Z,24.80
2023-06-07T04:04:42.182Z,24.80
2023-06-07T04:07:09.827Z,24.80
2023-06-07T04:09:36.589Z,24.80
2023-06-07T04:12:03.989Z,24.80
2023-06-07T04:14:30.694Z,24.80
2023-06-07T04:16:57.455Z,24.80
2023-06-07T04:19:24.193Z,24.80
2023-06-07T04:21:50.919Z,24.80
2023-06-07T04:24:18.379Z,24.80
2023-06-07T04:26:45.831Z,24.80
2023-06-07T04:29:12.677Z,24.80
2023-06-07T04:31:43.104Z,24.70
2023-06-07T04:34:11.250Z,24.80
2023-06-07T04:36:40.119Z,24.80
2023-06-07T04:39:10.116Z,24.70
2023-06-07T04:41:36.976Z,24.80
2023-06-07T04:44:06.970Z,24.80
2023-06-07T04:46:33.838Z,24.80
2023-06-07T04:49:01.358Z,24.80
2023-06-07T04:51:30.558Z,24.80
2023-06-07T04:53:59.618Z,24.70
2023-06-07T04:56:29.283Z,24.80
2023-06-07T04:58:56.637Z,24.80
2023-06-07T05:01:24.115Z,24.80
2023-06-07T05:03:58.284Z,24.80
2023-06-07T05:06:24.963Z,25.00
2023-06-07T05:08:52.013Z,24.80
2023-06-07T05:11:18.711Z,24.90
2023-06-07T05:13:45.374Z,24.90
2023-06-07T05:16:17.254Z,25.00
2023-06-07T05:18:50.246Z,25.00
2023-06-07T05:21:17.471Z,25.10
2023-06-07T05:23:45.126Z,25.00
2023-06-07T05:26:12.542Z,25.00
2023-06-07T05:28:39.309Z,25.00
2023-06-07T05:31:06.073Z,24.90
2023-06-07T05:33:33.006Z,25.00
2023-06-07T05:36:00.061Z,24.90
2023-06-07T05:38:26.788Z,24.90
2023-06-07T05:40:55.964Z,24.90
2023-06-07T05:43:23.073Z,25.00
2023-06-07T05:45:50.510Z,24.90
2023-06-07T05:48:17.237Z,24.90
2023-06-07T05:50:43.917Z,25.00
2023-06-07T05:53:10.675Z,25.00
2023-06-07T05:55:37.392Z,25.00
2023-06-07T05:58:04.668Z,25.00
2023-06-07T06:00:32.805Z,25.00
2023-06-07T06:03:02.197Z,25.00
2023-06-07T06:05:29.908Z,24.90
2023-06-07T06:07:58.114Z,24.90
2023-06-07T06:10:26.425Z,25.00
2023-06-07T06:12:53.253Z,25.00
2023-06-07T06:15:20.121Z,25.00
2023-06-07T06:17:49.034Z,25.00
2023-06-07T06:20:17.555Z,24.90
2023-06-07T06:22:44.374Z,25.00
2023-06-07T06:25:13.150Z,25.00
2023-06-07T06:27:40.043Z,25.00
2023-06-07T06:30:07.880Z,25.00
2023-06-07T06:32:34.889Z,25.00
2023-06-07T06:35:01.727Z,25.00
2023-06-07T06:37:28.425Z,25.00
2023-06-07T06:39:55.536Z,25.00
2023-06-07T06:42:22.411Z,25.00
2023-06-07T06:44:49.141Z,25.00
2023-06-07T06:47:18.736Z,25.10
2023-06-07T06:49:48.040Z,25.10
2023-06-07T06:52:14.890Z,25.00
2023-06-07T06:54:41.638Z,25.00
2023-06-07T06:57:09.365Z,25.10
2023-06-07T06:59:36.860Z,25.30
2023-06-07T07:02:03.920Z,25.10
2023-06-07T07:04:31.710Z,25.10
2023-06-07T07:06:58.581Z,25.00
2023-06-07T07:09:25.878Z,25.10
2023-06-07T07:11:52.651Z,25.00
2023-06-07T07:14:19.352Z,25.20
2023-06-07T07:16:46.143Z,25.10
2023-06-07T07:19:13.017Z,25.10
2023-06-07T07:21:40.990Z,25.10
2023-06-07T07:24:08.317Z,25.20
2023-06-07T07:26:36.473Z,25.10
2023-06-07T07:29:04.279Z,25.20
2023-06-07T07:31:34.607Z,25.10
2023-06-07T07:34:04.877Z,25.10
2023-06-07T07:36:35.217Z,25.20
2023-06-07T07:39:06.375Z,25.00
2023-06-07T07:41:33.962Z,25.10
2023-06-07T07:44:01.316Z,25.00
2023-06-07T07:46:29.275Z,24.80
2023-06-07T07:48:56.072Z,24.60
2023-06-07T07:51:22.761Z,24.60
2023-06-07T07:53:49.427Z,24.70
2023-06-07T07:56:16.379Z,24.60
2023-06-07T07:58:46.822Z,24.70
2023-06-07T08:01:14.433Z,24.60
2023-06-07T08:03:41.333Z,24.60
2023-06-07T08:06:08.135Z,24.70
2023-06-07T08:08:34.887Z,24.70
2023-06-07T08:11:01.760Z,24.70
2023-06-07T08:13:29.558Z,24.80
2023-06-07T08:15:56.807Z,24.80
2023-06-07T08:18:23.624Z,24.60
2023-06-07T08:20:50.412Z,24.60
2023-06-07T08:23:17.074Z,24.70
2023-06-07T08:25:43.842Z,24.60
2023-06-07T08:28:10.524Z,24.50
2023-06-07T08:30:37.195Z,24.40
2023-06-07T08:33:04.034Z,24.30
2023-06-07T08:35:30.844Z,24.30
2023-06-07T08:37:57.508Z,24.10
2023-06-07T08:40:26.635Z,24.20
2023-06-07T08:42:53.473Z,24.10
2023-06-07T08:45:21.300Z,24.10
2023-06-07T08:47:48.748Z,24.00
2023-06-07T08:50:18.136Z,24.00
2023-06-07T08:52:51.788Z,23.90
2023-06-07T08:55:18.699Z,23.90
2023-06-07T08:57:56.865Z,23.90
2023-06-07T09:00:24.470Z,23.90
2023-06-07T09:02:55.145Z,23.90
2023-06-07T09:05:23.124Z,24.00
2023-06-07T09:07:50.862Z,24.00
2023-06-07T09:10:20.566Z,24.00
2023-06-07T09:12:47.957Z,23.90
2023-06-07T09:15:22.595Z,24.10
2023-06-07T09:17:56.654Z,24.00
2023-06-07T09:20:25.877Z,24.10
2023-06-07T09:22:59.376Z,23.90
2023-06-07T09:25:27.179Z,24.10
2023-06-07T09:27:54.914Z,24.30
2023-06-07T09:30:22.659Z,24.30
2023-06-07T09:32:49.663Z,24.40
2023-06-07T09:35:18.106Z,24.50
2023-06-07T09:37:49.851Z,24.50
2023-06-07T09:40:17.903Z,24.60
2023-06-07T09:42:44.927Z,24.50
2023-06-07T09:45:17.091Z,24.70
2023-06-07T09:47:44.528Z,24.60
2023-06-07T09:50:13.037Z,24.60
2023-06-07T09:52:40.889Z,24.60
2023-06-07T09:55:09.725Z,24.60
2023-06-07T09:57:38.790Z,24.50
2023-06-07T10:00:17.790Z,24.30
2023-06-07T10:02:46.674Z,24.10
2023-06-07T10:05:15.221Z,23.80
2023-06-07T10:07:45.852Z,23.80
2023-06-07T10:10:16.341Z,23.90
2023-06-07T10:12:45.268Z,23.90
2023-06-07T10:15:15.583Z,23.80
2023-06-07T10:17:52.485Z,23.80
2023-06-07T10:20:29.773Z,23.70
2023-06-07T10:23:07.544Z,23.60
2023-06-07T10:25:48.787Z,23.60
2023-06-07T10:28:29.045Z,23.70
2023-06-07T10:31:04.313Z,23.90
2023-06-07T10:33:33.943Z,24.00
2023-06-07T10:36:01.351Z,24.10
2023-06-07T10:38:34.149Z,24.20
2023-06-07T10:41:04.222Z,24.20
2023-06-07T10:43:32.249Z,24.10
2023-06-07T10:46:26.400Z,24.20
2023-06-07T10:48:55.156Z,24.20
2023-06-07T10:51:52.642Z,24.10
2023-06-07T10:54:33.513Z,24.10
2023-06-07T10:57:01.132Z,24.10
2023-06-07T10:59:28.234Z,23.90
2023-06-07T11:02:22.063Z,23.90
2023-06-07T11:04:53.222Z,24.10
2023-06-07T11:07:36.354Z,24.20
2023-06-07T11:10:09.573Z,24.00
2023-06-07T11:12:36.997Z,24.10
2023-06-07T11:15:26.550Z,24.10
2023-06-07T11:18:01.169Z,24.10
2023-06-07T11:20:37.321Z,24.20
2023-06-07T11:23:22.998Z,24.30
2023-06-07T11:25:51.359Z,24.40
2023-06-07T11:28:34.339Z,24.50
2023-06-07T11:31:03.002Z,24.60
2023-06-07T11:33:31.569Z,24.50
2023-06-07T11:35:58.884Z,24.60
2023-06-07T11:38:27.636Z,24.50
2023-06-07T11:40:54.838Z,24.50
2023-06-07T11:43:24.147Z,24.50
2023-06-07T11:45:51.955Z,24.50
2023-06-07T11:48:19.073Z,24.60
2023-06-07T11:50:45.851Z,24.60
2023-06-07T11:53:13.886Z,24.60
2023-06-07T11:55:41.007Z,24.50
2023-06-07T11:58:08.853Z,24.60
2023-06-07T12:00:37.395Z,24.60
2023-06-07T12:03:06.297Z,24.70
2023-06-07T12:05:35.447Z,24.80
2023-06-07T12:08:08.786Z,24.80
2023-06-07T12:10:39.490Z,24.90
2023-06-07T12:13:17.168Z,24.80
2023-06-07T12:15:49.105Z,24.80
2023-06-07T12:18:17.290Z,24.90
2023-06-07T12:20:45.618Z,24.90
2023-06-07T12:23:13.392Z,24.80
2023-06-07T12:25:43.760Z,25.00
2023-06-07T12:28:13.245Z,24.90
2023-06-07T12:30:42.500Z,24.90
2023-06-07T12:33:16.416Z,24.80
2023-06-07T12:35:50.009Z,24.80
2023-06-07T12:38:17.063Z,24.90
2023-06-07T12:40:43.855Z,25.00
2023-06-07T12:43:10.762Z,24.90
2023-06-07T12:45:37.548Z,24.90
2023-06-07T12:48:04.856Z,25.00
2023-06-07T12:50:31.673Z,24.90
2023-06-07T12:52:58.664Z,25.00
2023-06-07T12:55:25.559Z,25.00
2023-06-07T12:57:52.354Z,25.00
2023-06-07T13:00:19.482Z,24.90
2023-06-07T13:02:46.466Z,24.80
2023-06-07T13:05:13.874Z,24.80
2023-06-07T13:07:41.285Z,24.80
2023-06-07T13:10:11.659Z,24.90
2023-06-07T13:12:39.809Z,24.90
2023-06-07T13:15:07.485Z,24.80
2023-06-07T13:17:35.270Z,24.90
2023-06-07T13:20:02.413Z,25.00
2023-06-07T13:22:31.962Z,25.00
2023-06-07T13:24:59.157Z,25.10
2023-06-07T13:27:28.179Z,25.10
2023-06-07T13:29:56.185Z,25.00
2023-06-07T13:32:23.063Z,25.10
2023-06-07T13:34:49.804Z,25.20
2023-06-07T13:37:16.613Z,25.10
2023-06-07T13:39:43.347Z,25.10
2023-06-07T13:42:10.238Z,25.00
2023-06-07T13:44:36.908Z,25.00
2023-06-07T13:47:04.278Z,25.00
2023-06-07T13:49:31.417Z,25.00
2023-06-07T13:51:58.808Z,25.00
2023-06-07T13:54:25.997Z,25.00
2023-06-07T13:56:54.515Z,25.00
2023-06-07T13:59:23.526Z,25.10
2023-06-07T14:01:53.074Z,25.00
2023-06-07T14:04:22.472Z,25.00
2023-06-07T14:06:49.849Z,25.10
2023-06-07T14:09:16.861Z,25.10
2023-06-07T14:11:44.347Z,25.10
2023-06-07T14:14:11.364Z,25.10
2023-06-07T14:16:38.115Z,25.10
2023-06-07T14:19:05.388Z,25.10
2023-06-07T14:21:34.050Z,25.20
2023-06-07T14:24:01.235Z,25.20
2023-06-07T14:26:28.040Z,25.20
2023-06-07T14:28:54.844Z,25.20
2023-06-07T14:31:23.106Z,25.30
2023-06-07T14:33:53.521Z,25.20
2023-06-07T14:36:21.039Z,25.10
2023-06-07T14:38:47.946Z,25.30
2023-06-07T14:41:14.732Z,25.20
2023-06-07T14:43:41.899Z,25.30
2023-06-07T14:46:08.716Z,25.30
2023-06-07T14:48:35.532Z,25.30
2023-06-07T14:51:02.238Z,25.40
2023-06-07T14:53:31.851Z,25.20
2023-06-07T14:56:01.148Z,25.30
2023-06-07T14:58:30.218Z,25.30
2023-06-07T15:00:56.974Z,25.30
2023-06-07T15:03:25.026Z,25.30
2023-06-07T15:05:54.272Z,25.20
2023-06-07T15:08:22.596Z,25.40
2023-06-07T15:10:49.333Z,25.40
2023-06-07T15:13:16.679Z,25.40
2023-06-07T15:15:44.510Z,25.30
2023-06-07T15:18:11.400Z,25.30
2023-06-07T15:20:38.309Z,25.40
2023-06-07T15:23:06.561Z,25.30
2023-06-07T15:25:33.353Z,25.20
2023-06-07T15:28:00.229Z,25.40
2023-06-07T15:30:27.241Z,25.40
2023-06-07T15:32:54.067Z,25.40
2023-06-07T15:35:21.052Z,25.40
2023-06-07T15:37:47.816Z,25.40
2023-06-07T15:40:14.654Z,25.40
2023-06-07T15:42:41.490Z,25.30
2023-06-07T15:45:08.810Z,25.40
2023-06-07T15:47:44.695Z,25.30
2023-06-07T15:50:11.582Z,25.40
2023-06-07T15:52:38.354Z,25.50
2023-06-07T15:55:05.563Z,25.50
2023-06-07T15:57:32.293Z,25.50
2023-06-07T15:59:59.120Z,25.60
2023-06-07T16:02:25.981Z,25.60
2023-06-07T16:04:52.819Z,25.80
2023-06-07T16:07:22.184Z,25.60
2023-06-07T16:09:50.003Z,25.70
2023-06-07T16:12:16.938Z,25.70
2023-06-07T16:14:44.319Z,25.60
2023-06-07T16:17:11.221Z,25.60
2023-06-07T16:19:38.463Z,25.70
2023-06-07T16:22:05.569Z,25.90
2023-06-07T16:24:39.318Z,25.80
2023-06-07T16:27:09.697Z,25.70
2023-06-07T16:29:36.783Z,25.60
2023-06-07T16:32:03.798Z,25.60
2023-06-07T16:34:30.905Z,25.60
2023-06-07T16:36:57.676Z,25.50
2023-06-07T16:39:27.232Z,25.50
2023-06-07T16:41:56.434Z,25.40
2023-06-07T16:44:23.509Z,25.50
2023-06-07T16:46:53.726Z,25.50
2023-06-07T16:49:21.115Z,25.60
2023-06-07T16:51:47.959Z,25.60
2023-06-07T16:54:15.680Z,25.70
2023-06-07T16:56:42.550Z,25.80
2023-06-07T16:59:09.409Z,25.70
2023-06-07T17:01:36.606Z,25.90
2023-06-07T17:04:04.243Z,25.90
2023-06-07T17:06:31.061Z,25.80
2023-06-07T17:08:57.780Z,25.80
2023-06-07T17:11:26.239Z,25.80
2023-06-07T17:13:53.107Z,25.80
2023-06-07T17:16:20.012Z,25.80
2023-06-07T17:18:47.252Z,25.80
2023-06-07T17:21:14.920Z,25.70
2023-06-07T17:23:48.756Z,25.80
2023-06-07T17:26:15.574Z,25.70
2023-06-07T17:28:42.556Z,25.80
2023-06-07T17:31:11.661Z,25.80
2023-06-07T17:33:41.684Z,25.80
2023-06-07T17:36:08.982Z,25.60
2023-06-07T17:38:35.873Z,25.50
2023-06-07T17:41:02.697Z,25.80
2023-06-07T17:43:29.566Z,25.70
2023-06-07T17:45:56.542Z,25.70
2023-06-07T17:48:24.620Z,25.70
2023-06-07T17:50:51.463Z,25.60
2023-06-07T17:53:18.094Z,25.70
2023-06-07T17:55:46.228Z,25.60
2023-06-07T17:58:13.778Z,25.60
2023-06-07T18:00:40.601Z,25.60
2023-06-07T18:03:09.753Z,25.60
2023-06-07T18:05:36.590Z,25.60
2023-06-07T18:08:04.254Z,25.90
2023-06-07T18:10:31.018Z,25.70
2023-06-07T18:12:58.382Z,25.60
2023-06-07T18:15:25.130Z,25.60
2023-06-07T18:17:54.055Z,25.60
2023-06-07T18:20:21.553Z,25.50
2023-06-07T18:22:48.789Z,25.50
2023-06-07T18:25:15.839Z,25.50
2023-06-07T18:27:42.515Z,25.40
2023-06-07T18:30:09.734Z,25.40
2023-06-07T18:33:16.137Z,25.30
2023-06-07T18:35:44.952Z,25.40
2023-06-07T18:38:11.747Z,25.60
2023-06-07T18:40:38.420Z,25.60
2023-06-07T18:43:05.161Z,25.70
2023-06-07T18:45:31.932Z,25.60
2023-06-07T18:47:58.891Z,25.60
2023-06-07T18:50:26.026Z,25.50
2023-06-07T18:52:54.480Z,25.60
2023-06-07T18:55:23.599Z,25.60
2023-06-07T18:57:50.245Z,25.50
2023-06-07T19:00:17.365Z,25.60
2023-06-07T19:02:44.266Z,25.50
2023-06-07T19:05:11.135Z,25.50
2023-06-07T19:07:38.474Z,25.60
2023-06-07T19:10:05.773Z,25.50
2023-06-07T19:12:32.436Z,25.30
2023-06-07T19:14:59.142Z,25.30
2023-06-07T19:17:26.320Z,25.30
2023-06-07T19:19:53.082Z,25.30
2023-06-07T19:22:19.747Z,25.40
2023-06-07T19:24:46.950Z,25.30
2023-06-07T19:27:13.917Z,25.30
2023-06-07T19:29:42.005Z,25.60
2023-06-07T19:32:09.884Z,25.30
2023-06-07T19:34:37.115Z,25.20
2023-06-07T19:37:04.590Z,25.20
2023-06-07T19:39:34.108Z,25.30
2023-06-07T19:42:04.421Z,25.20
2023-06-07T19:44:31.133Z,25.30
2023-06-07T19:47:03.208Z,25.20
2023-06-07T19:49:30.915Z,25.20
2023-06-07T19:51:57.817Z,25.20
2023-06-07T19:54:24.628Z,25.10
2023-06-07T19:56:51.311Z,25.10
2023-06-07T19:59:18.036Z,25.20
2023-06-07T20:01:44.970Z,25.30
2023-06-07T20:04:14.769Z,25.40
2023-06-07T20:06:41.544Z,25.40
2023-06-07T20:09:08.478Z,25.40
2023-06-07T20:11:36.927Z,25.40
2023-06-07T20:14:03.634Z,25.50
2023-06-07T20:16:30.573Z,25.50
2023-06-07T20:18:57.317Z,25.60
2023-06-07T20:21:23.997Z,25.50
2023-06-07T20:23:51.952Z,25.50
2023-06-07T20:26:19.167Z,25.50
2023-06-07T20:28:45.853Z,25.50
2023-06-07T20:31:12.530Z,25.40
2023-06-07T20:33:40.144Z,25.40
2023-06-07T20:36:07.245Z,25.50
2023-06-07T20:38:33.897Z,25.50
2023-06-07T20:41:00.915Z,25.50
2023-06-07T20:43:27.669Z,25.50
2023-06-07T20:45:54.356Z,25.50
2023-06-07T20:48:21.146Z,25.40
2023-06-07T20:50:47.795Z,25.40
2023-06-07T20:53:14.834Z,25.30
2023-06-07T20:55:41.712Z,25.40
2023-06-07T20:58:08.367Z,25.40
2023-06-07T21:00:35.193Z,25.40
2023-06-07T21:03:02.053Z,25.40
2023-06-07T21:05:28.844Z,25.40
2023-06-07T21:07:55.595Z,25.40
2023-06-07T21:10:22.287Z,25.40
2023-06-07T21:12:48.984Z,25.40
2023-06-07T21:15:15.674Z,25.40
2023-06-07T21:17:42.521Z,25.50
2023-06-07T21:20:09.918Z,25.40
2023-06-07T21:22:36.572Z,25.40
2023-06-07T21:25:03.641Z,25.50
2023-06-07T21:27:30.421Z,25.40
2023-06-07T21:29:58.602Z,25.40
2023-06-07T21:32:27.418Z,25.30
2023-06-07T21:34:54.350Z,25.40
2023-06-07T21:37:21.022Z,25.40
2023-06-07T21:39:47.706Z,25.50
2023-06-07T21:42:14.425Z,25.40
2023-06-07T21:44:41.167Z,25.50
2023-06-07T21:47:08.026Z,25.50
2023-06-07T21:49:34.754Z,25.50
2023-06-07T21:52:01.472Z,25.60
2023-06-07T21:54:28.736Z,25.60
2023-06-07T21:56:55.532Z,25.60
2023-06-07T21:59:23.608Z,25.80
2023-06-07T22:01:50.902Z,25.60
2023-06-07T22:04:17.757Z,25.60
2023-06-07T22:06:44.571Z,25.50
2023-06-07T22:09:12.236Z,25.40
2023-06-07T22:11:41.025Z,25.30
2023-06-07T22:14:08.792Z,25.20
2023-06-07T22:16:35.768Z,25.10
2023-06-07T22:19:02.579Z,25.20
2023-06-07T22:21:31.284Z,25.30
2023-06-07T22:23:58.747Z,25.30
2023-06-07T22:26:30.193Z,25.40
2023-06-07T22:29:00.995Z,25.50
2023-06-07T22:31:35.515Z,25.50
2023-06-07T22:34:05.561Z,25.60
2023-06-07T22:36:33.104Z,25.60
2023-06-07T22:39:01.177Z,25.60
2023-06-07T22:41:28.630Z,25.60
2023-06-07T22:43:57.454Z,25.60
2023-06-07T22:46:25.078Z,25.50
2023-06-07T22:48:52.310Z,25.40
2023-06-07T22:51:20.884Z,25.40
2023-06-07T22:53:48.752Z,25.40
2023-06-07T22:56:16.434Z,25.50
2023-06-07T23:02:32.121Z,25.40
2023-06-07T23:04:59.619Z,25.40
2023-06-07T23:07:26.341Z,25.50
2023-06-07T23:09:53.042Z,25.60
2023-06-07T23:12:19.815Z,25.50
2023-06-07T23:14:49.530Z,25.40
2023-06-07T23:17:17.065Z,25.50
2023-06-07T23:19:51.099Z,25.50
2023-06-07T23:22:18.096Z,25.50
2023-06-07T23:24:48.812Z,25.50
2023-06-07T23:27:15.591Z,25.50
2023-06-07T23:29:42.952Z,25.60
2023-06-07T23:32:09.661Z,25.60
2023-06-07T23:34:36.346Z,25.60
2023-06-07T23:37:03.262Z,25.60
2023-06-07T23:39:29.958Z,25.60
2023-06-07T23:41:57.278Z,25.80
2023-06-07T23:44:25.852Z,25.50
2023-06-07T23:46:54.125Z,25.60
2023-06-07T23:49:25.644Z,25.50
2023-06-07T23:51:54.045Z,25.50
2023-06-07T23:54:22.337Z,25.60
2023-06-07T23:56:49.474Z,25.60
2023-06-07T23:59:16.202Z,25.60
